createdAt,value
2017-11-08T00:01:49.150Z,95860.11
2017-11-08T00:04:19.722Z,95874.09
2017-11-08T00:06:47.477Z,95868.12
2017-11-08T00:09:15.038Z,95869.89
2017-11-08T00:11:42.821Z,95855.42
2017-11-08T00:14:10.346Z,95851.86
2017-11-08T00:16:37.989Z,95866.08
2017-11-08T00:19:05.549Z,95869.09
2017-11-08T00:21:33.099Z,95858.93
2017-11-08T00:24:00.710Z,95875.91
2017-11-08T00:26:28.487Z,95883.52
2017-11-08T00:28:56.036Z,95869.00
2017-11-08T00:31:23.666Z,95871.86
2017-11-08T00:33:51.243Z,95875.73
2017-11-08T00:36:18.820Z,95873.34
2017-11-08T00:38:46.398Z,95858.20
2017-11-08T00:41:13.985Z,95849.39
2017-11-08T00:43:41.887Z,95857.01
2017-11-08T00:46:09.454Z,95841.78
2017-11-08T00:48:36.974Z,95853.28
2017-11-08T00:51:04.526Z,95843.84
2017-11-08T00:53:32.368Z,95844.00
2017-11-08T00:55:59.900Z,95853.28
2017-11-08T00:58:27.698Z,95835.05
2017-11-08T01:01:00.228Z,95846.70
2017-11-08T01:03:27.772Z,95855.77
2017-11-08T01:05:55.282Z,95865.73
2017-11-08T01:08:22.890Z,95850.74
2017-11-08T01:10:50.446Z,95857.08
2017-11-08T01:13:17.962Z,95863.12
2017-11-08T01:15:46.128Z,95872.11
2017-11-08T01:18:13.677Z,95862.97
2017-11-08T01:20:41.202Z,95855.52
2017-11-08T01:23:08.766Z,95842.82
2017-11-08T01:25:36.554Z,95837.51
2017-11-08T01:28:04.186Z,95827.66
2017-11-08T01:30:31.806Z,95827.83
2017-11-08T01:32:59.338Z,95829.89
2017-11-08T01:35:26.862Z,95832.43
2017-11-08T01:37:56.214Z,95839.48
2017-11-08T01:40:23.794Z,95845.37
2017-11-08T01:42:51.331Z,95831.09
2017-11-08T01:45:18.893Z,95833.94
2017-11-08T01:47:46.421Z,95823.05
2017-11-08T01:50:13.947Z,95836.46
2017-11-08T01:52:41.551Z,95839.70
2017-11-08T01:55:09.098Z,95833.45
2017-11-08T01:57:36.704Z,95829.31
2017-11-08T02:00:06.032Z,95824.73
2017-11-08T02:02:33.556Z,95821.56
2017-11-08T02:05:01.089Z,95812.27
2017-11-08T02:07:28.658Z,95828.30
2017-11-08T02:09:56.200Z,95827.92
2017-11-08T02:12:23.719Z,95831.86
2017-11-08T02:14:51.343Z,95836.96
2017-11-08T02:17:18.938Z,95843.67
2017-11-08T02:19:46.503Z,95852.96
2017-11-08T02:22:14.101Z,95843.60
2017-11-08T02:24:41.646Z,95828.59
2017-11-08T02:27:09.194Z,95831.81
2017-11-08T02:29:36.759Z,95847.48
2017-11-08T02:32:04.347Z,95840.53
2017-11-08T02:34:31.899Z,95831.89
2017-11-08T02:36:59.460Z,95843.38
2017-11-08T02:39:27.030Z,95838.30
2017-11-08T02:41:54.555Z,95845.74
2017-11-08T02:44:22.110Z,95838.08
2017-11-08T02:47:06.236Z,95835.69
2017-11-08T02:49:33.790Z,95827.92
2017-11-08T02:52:01.327Z,95822.75
2017-11-08T02:54:28.902Z,95822.36
2017-11-08T02:56:56.417Z,95829.81
2017-11-08T02:59:23.949Z,95835.84
2017-11-08T03:01:51.574Z,95829.40
2017-11-08T03:04:22.018Z,95830.59
2017-11-08T03:06:49.535Z,95823.06
2017-11-08T03:09:17.135Z,95826.63
2017-11-08T03:11:44.643Z,95834.34
2017-11-08T03:14:12.178Z,95833.28
2017-11-08T03:16:39.725Z,95835.75
2017-11-08T03:19:07.233Z,95838.77
2017-11-08T03:21:34.753Z,95847.66
2017-11-08T03:24:02.344Z,95848.55
2017-11-08T03:26:29.858Z,95844.19
2017-11-08T03:28:57.381Z,95855.90
2017-11-08T03:31:24.961Z,95845.36
2017-11-08T03:33:52.494Z,95851.53
2017-11-08T03:36:20.017Z,95869.73
2017-11-08T03:38:47.574Z,95858.30
2017-11-08T03:41:15.201Z,95854.97
2017-11-08T03:43:42.756Z,95854.50
2017-11-08T03:46:10.306Z,95842.09
2017-11-08T03:48:37.899Z,95832.19
2017-11-08T03:51:05.519Z,95829.64
2017-11-08T03:53:33.102Z,95821.63
2017-11-08T03:56:00.701Z,95820.03
2017-11-08T03:58:28.224Z,95812.83
2017-11-08T04:00:55.780Z,95818.11
2017-11-08T04:03:23.312Z,95805.86
2017-11-08T04:05:50.834Z,95795.38
2017-11-08T04:08:18.444Z,95807.52
2017-11-08T04:10:46.296Z,95803.79
2017-11-08T04:13:13.841Z,95795.10
2017-11-08T04:15:41.431Z,95789.92
2017-11-08T04:18:08.972Z,95787.56
2017-11-08T04:20:36.512Z,95764.50
2017-11-08T04:23:04.079Z,95776.63
2017-11-08T04:25:31.613Z,95788.81
2017-11-08T04:27:59.136Z,95806.66
2017-11-08T04:30:26.760Z,95796.63
2017-11-08T04:32:54.339Z,95808.94
2017-11-08T04:35:22.155Z,95815.59
2017-11-08T04:37:49.731Z,95809.67
2017-11-08T04:40:17.266Z,95803.61
2017-11-08T04:42:44.851Z,95797.68
2017-11-08T04:45:12.425Z,95799.90
2017-11-08T04:47:39.972Z,95797.32
2017-11-08T04:50:07.515Z,95797.80
2017-11-08T04:52:35.058Z,95804.91
2017-11-08T04:55:02.915Z,95803.66
2017-11-08T04:57:30.496Z,95821.11
2017-11-08T04:59:58.061Z,95809.20
2017-11-08T05:02:25.652Z,95789.04
2017-11-08T05:04:53.178Z,95790.59
2017-11-08T05:07:20.733Z,95791.48
2017-11-08T05:09:48.327Z,95794.50
2017-11-08T05:12:15.898Z,95819.42
2017-11-08T05:14:43.445Z,95823.68
2017-11-08T05:17:11.065Z,95808.41
2017-11-08T05:19:38.618Z,95803.95
2017-11-08T05:22:06.117Z,95800.70
2017-11-08T05:24:33.935Z,95798.33
2017-11-08T05:27:01.869Z,95792.46
2017-11-08T05:29:29.403Z,95807.66
2017-11-08T05:31:57.042Z,95798.08
2017-11-08T05:34:24.627Z,95811.00
2017-11-08T05:36:52.366Z,95796.97
2017-11-08T05:39:19.957Z,95791.46
2017-11-08T05:41:47.473Z,95785.70
2017-11-08T05:44:15.019Z,95783.64
2017-11-08T05:46:43.409Z,95800.94
2017-11-08T05:49:11.430Z,95789.99
2017-11-08T05:51:39.865Z,95816.30
2017-11-08T05:54:07.685Z,95779.41
2017-11-08T05:56:35.234Z,95775.97
2017-11-08T05:59:02.783Z,95789.81
2017-11-08T06:01:30.344Z,95807.55
2017-11-08T06:03:58.475Z,95784.52
2017-11-08T06:06:25.995Z,95793.63
2017-11-08T06:08:53.563Z,95797.12
2017-11-08T06:11:21.102Z,95792.69
2017-11-08T06:13:48.620Z,95800.30
2017-11-08T06:16:16.197Z,95824.30
2017-11-08T06:18:43.728Z,95809.13
2017-11-08T06:21:11.299Z,95797.39
2017-11-08T06:23:38.897Z,95821.03
2017-11-08T06:26:06.444Z,95795.50
2017-11-08T06:28:33.965Z,95796.92
2017-11-08T06:31:02.847Z,95801.66
2017-11-08T06:33:30.570Z,95802.17
2017-11-08T06:35:58.106Z,95818.88
2017-11-08T06:38:25.965Z,95809.48
2017-11-08T06:40:53.478Z,95797.12
2017-11-08T06:43:21.043Z,95814.37
2017-11-08T06:45:48.669Z,95827.99
2017-11-08T06:48:16.280Z,95809.13
2017-11-08T06:50:43.817Z,95811.48
2017-11-08T06:53:17.331Z,95804.71
2017-11-08T06:55:48.448Z,95797.47
2017-11-08T06:58:16.020Z,95807.52
2017-11-08T07:00:43.582Z,95807.73
2017-11-08T07:03:11.094Z,95801.39
2017-11-08T07:05:38.641Z,95791.41
2017-11-08T07:08:06.202Z,95783.89
2017-11-08T07:10:33.722Z,95786.36
2017-11-08T07:13:01.289Z,95779.70
2017-11-08T07:15:28.883Z,95783.48
2017-11-08T07:17:56.418Z,95789.28
2017-11-08T07:20:23.934Z,95782.30
2017-11-08T07:22:51.614Z,95803.31
2017-11-08T07:25:19.214Z,95789.19
2017-11-08T07:27:46.769Z,95813.72
2017-11-08T07:30:14.406Z,95803.25
2017-11-08T07:32:41.951Z,95782.94
2017-11-08T07:35:09.498Z,95784.44
2017-11-08T07:37:37.170Z,95775.08
2017-11-08T07:40:05.729Z,95779.53
2017-11-08T07:42:33.270Z,95778.34
2017-11-08T07:45:00.853Z,95785.64
2017-11-08T07:47:28.422Z,95781.98
2017-11-08T07:49:56.014Z,95776.13
2017-11-08T07:52:23.660Z,95788.54
2017-11-08T07:54:53.028Z,95784.13
2017-11-08T07:57:20.600Z,95813.30
2017-11-08T07:59:49.969Z,95793.30
2017-11-08T08:02:17.534Z,95797.92
2017-11-08T08:04:45.256Z,95804.94
2017-11-08T08:07:12.770Z,95782.38
2017-11-08T08:09:40.343Z,95783.02
2017-11-08T08:12:08.212Z,95793.49
2017-11-08T08:14:35.776Z,95765.94
2017-11-08T08:17:03.382Z,95761.25
2017-11-08T08:19:30.966Z,95754.41
2017-11-08T08:21:58.499Z,95772.98
2017-11-08T08:24:26.088Z,95769.27
2017-11-08T08:26:53.663Z,95770.62
2017-11-08T08:29:22.082Z,95770.19
2017-11-08T08:31:49.710Z,95768.91
2017-11-08T08:34:17.236Z,95759.08
2017-11-08T08:36:44.741Z,95763.79
2017-11-08T08:39:12.297Z,95762.92
2017-11-08T08:41:39.811Z,95755.43
2017-11-08T08:44:07.350Z,95756.80
2017-11-08T08:46:34.919Z,95766.94
2017-11-08T08:49:02.506Z,95771.09
2017-11-08T08:51:30.053Z,95767.98
2017-11-08T08:53:57.644Z,95787.77
2017-11-08T08:56:25.215Z,95783.39
2017-11-08T08:58:52.733Z,95768.81
2017-11-08T09:01:20.364Z,95775.23
2017-11-08T09:03:47.902Z,95796.58
2017-11-08T09:06:15.423Z,95773.34
2017-11-08T09:08:43.037Z,95776.09
2017-11-08T09:11:10.571Z,95785.84
2017-11-08T09:13:38.111Z,95780.94
2017-11-08T09:16:05.736Z,95795.86
2017-11-08T09:18:33.327Z,95779.05
2017-11-08T09:21:00.863Z,95779.69
2017-11-08T09:23:31.167Z,95772.21
2017-11-08T09:25:58.782Z,95776.19
2017-11-08T09:28:26.310Z,95775.31
2017-11-08T09:30:53.951Z,95763.95
2017-11-08T09:33:21.496Z,95755.55
2017-11-08T09:35:49.101Z,95756.16
2017-11-08T09:38:16.775Z,95767.06
2017-11-08T09:40:44.319Z,95743.81
2017-11-08T09:43:12.611Z,95750.71
2017-11-08T09:45:40.265Z,95739.13
2017-11-08T09:48:08.183Z,95751.19
2017-11-08T09:50:35.783Z,95739.42
2017-11-08T09:53:04.955Z,95734.41
2017-11-08T09:55:32.478Z,95738.05
2017-11-08T09:58:02.832Z,95736.20
2017-11-08T10:00:30.469Z,95737.94
2017-11-08T10:02:58.008Z,95732.58
2017-11-08T10:05:25.609Z,95732.36
2017-11-08T10:07:53.196Z,95741.50
2017-11-08T10:10:20.745Z,95730.06
2017-11-08T10:12:48.290Z,95737.14
2017-11-08T10:15:15.923Z,95717.16
2017-11-08T10:17:43.434Z,95717.61
2017-11-08T10:20:10.967Z,95724.98
2017-11-08T10:22:38.607Z,95725.62
2017-11-08T10:25:06.149Z,95721.30
2017-11-08T10:27:33.709Z,95712.36
2017-11-08T10:30:01.421Z,95694.16
2017-11-08T10:32:29.051Z,95702.63
2017-11-08T10:34:56.590Z,95712.52
2017-11-08T10:37:24.136Z,95707.48
2017-11-08T10:39:51.734Z,95701.38
2017-11-08T10:42:19.227Z,95706.98
2017-11-08T10:44:46.765Z,95692.65
2017-11-08T10:47:14.335Z,95698.14
2017-11-08T10:49:42.097Z,95698.48
2017-11-08T10:52:09.650Z,95695.84
2017-11-08T10:54:37.317Z,95711.02
2017-11-08T10:57:04.844Z,95690.45
2017-11-08T10:59:32.374Z,95694.30
2017-11-08T11:01:59.978Z,95683.95
2017-11-08T11:04:27.668Z,95702.89
2017-11-08T11:06:55.246Z,95698.67
2017-11-08T11:09:22.878Z,95703.16
2017-11-08T11:11:50.426Z,95697.55
2017-11-08T11:14:17.978Z,95690.27
2017-11-08T11:16:45.565Z,95696.13
2017-11-08T11:19:13.165Z,95696.56
2017-11-08T11:21:40.720Z,95695.98
2017-11-08T11:24:13.182Z,95686.91
2017-11-08T11:26:42.456Z,95683.19
2017-11-08T11:29:10.915Z,95685.64
2017-11-08T11:31:38.525Z,95672.71
2017-11-08T11:34:06.304Z,95682.80
2017-11-08T11:36:33.859Z,95667.26
2017-11-08T11:39:01.462Z,95677.50
2017-11-08T11:41:29.070Z,95673.77
2017-11-08T11:43:56.644Z,95677.73
2017-11-08T11:46:24.242Z,95669.39
2017-11-08T11:48:53.580Z,95681.57
2017-11-08T11:51:26.367Z,95664.18
2017-11-08T11:53:53.955Z,95668.00
2017-11-08T11:56:21.484Z,95660.06
2017-11-08T11:58:49.154Z,95656.34
2017-11-08T12:01:16.788Z,95670.33
2017-11-08T12:03:44.370Z,95669.20
2017-11-08T12:06:11.950Z,95670.28
2017-11-08T12:08:39.557Z,95681.23
2017-11-08T12:11:07.134Z,95677.53
2017-11-08T12:13:34.703Z,95676.73
2017-11-08T12:16:02.280Z,95689.20
2017-11-08T12:18:29.866Z,95692.03
2017-11-08T12:20:57.399Z,95680.47
2017-11-08T12:23:24.980Z,95679.16
2017-11-08T12:25:52.597Z,95688.91
2017-11-08T12:28:20.235Z,95683.95
2017-11-08T12:30:47.796Z,95675.27
2017-11-08T12:33:15.328Z,95673.00
2017-11-08T12:35:49.482Z,95681.27
2017-11-08T12:38:17.069Z,95675.39
2017-11-08T12:40:44.691Z,95677.55
2017-11-08T12:43:14.152Z,95686.42
2017-11-08T12:45:45.534Z,95681.09
2017-11-08T12:48:13.722Z,95689.50
2017-11-08T12:50:42.330Z,95697.58
2017-11-08T12:53:11.177Z,95694.95
2017-11-08T12:55:40.519Z,95689.52
2017-11-08T12:58:08.323Z,95692.77
2017-11-08T13:00:35.961Z,95699.89
2017-11-08T13:03:03.727Z,95695.64
2017-11-08T13:05:35.214Z,95700.30
2017-11-08T13:08:05.644Z,95691.38
2017-11-08T13:13:29.273Z,95692.06
2017-11-08T13:15:56.896Z,95700.84
2017-11-08T13:18:24.475Z,95694.21
2017-11-08T13:20:52.084Z,95698.63
2017-11-08T13:23:19.638Z,95690.41
2017-11-08T13:25:47.198Z,95697.28
2017-11-08T13:28:14.805Z,95693.91
2017-11-08T13:30:42.410Z,95698.98
2017-11-08T13:33:09.996Z,95697.78
2017-11-08T13:35:38.407Z,95702.75
2017-11-08T13:38:06.675Z,95694.44
2017-11-08T13:40:34.247Z,95706.09
2017-11-08T13:43:02.479Z,95709.41
2017-11-08T13:45:30.091Z,95704.20
2017-11-08T13:47:57.669Z,95709.58
2017-11-08T13:50:25.222Z,95695.40
2017-11-08T13:52:52.834Z,95704.59
2017-11-08T13:55:20.940Z,95698.25
2017-11-08T13:57:49.379Z,95697.55
2017-11-08T14:00:17.044Z,95694.59
2017-11-08T14:02:44.646Z,95701.59
2017-11-08T14:05:12.202Z,95691.75
2017-11-08T14:07:39.822Z,95692.38
2017-11-08T14:10:07.395Z,95684.23
2017-11-08T14:12:34.952Z,95690.34
2017-11-08T14:15:02.514Z,95689.21
2017-11-08T14:17:30.110Z,95689.61
2017-11-08T14:19:57.624Z,95685.33
2017-11-08T14:22:25.747Z,95690.95
2017-11-08T14:24:53.444Z,95687.48
2017-11-08T14:27:22.923Z,95693.19
2017-11-08T14:29:52.363Z,95687.80
2017-11-08T14:32:20.020Z,95697.53
2017-11-08T14:34:47.577Z,95695.73
2017-11-08T14:37:15.095Z,95690.88
2017-11-08T14:39:42.711Z,95696.83
2017-11-08T14:42:15.795Z,95699.69
2017-11-08T14:44:44.399Z,95702.51
2017-11-08T14:47:15.864Z,95690.78
2017-11-08T14:49:44.255Z,95700.47
2017-11-08T14:52:12.468Z,95696.45
2017-11-08T14:54:40.076Z,95703.14
2017-11-08T14:57:08.400Z,95694.04
2017-11-08T14:59:36.475Z,95689.98
2017-11-08T15:02:04.066Z,95703.15
2017-11-08T15:04:31.582Z,95698.86
2017-11-08T15:06:59.179Z,95694.59
2017-11-08T15:09:26.739Z,95696.45
2017-11-08T15:11:58.371Z,95700.63
2017-11-08T15:14:26.740Z,95692.70
2017-11-08T15:16:54.417Z,95699.84
2017-11-08T15:19:21.985Z,95695.72
2017-11-08T15:21:49.623Z,95697.72
2017-11-08T15:24:18.408Z,95699.90
2017-11-08T15:26:47.578Z,95696.27
2017-11-08T15:29:15.205Z,95698.27
2017-11-08T15:31:42.826Z,95686.42
2017-11-08T15:34:10.348Z,95698.27
2017-11-08T15:36:37.992Z,95699.77
2017-11-08T15:39:06.313Z,95706.31
2017-11-08T15:41:34.578Z,95706.81
2017-11-08T15:44:02.131Z,95701.10
2017-11-08T15:46:32.538Z,95703.80
2017-11-08T15:49:02.939Z,95700.50
2017-11-08T15:51:30.546Z,95699.68
2017-11-08T15:53:58.824Z,95691.86
2017-11-08T15:56:26.697Z,95698.17
2017-11-08T15:58:54.359Z,95698.63
2017-11-08T16:01:23.920Z,95701.48
2017-11-08T16:03:51.583Z,95707.63
2017-11-08T16:06:19.246Z,95701.75
2017-11-08T16:09:02.940Z,95698.49
2017-11-08T16:11:33.442Z,95701.34
2017-11-08T16:14:01.132Z,95696.84
2017-11-08T16:16:28.712Z,95703.47
2017-11-08T16:18:56.457Z,95696.92
2017-11-08T16:21:24.088Z,95698.63
2017-11-08T16:23:52.471Z,95698.41
2017-11-08T16:26:20.257Z,95696.02
2017-11-08T16:28:47.944Z,95690.92
2017-11-08T16:31:15.609Z,95687.76
2017-11-08T16:33:43.415Z,95683.00
2017-11-08T16:36:10.995Z,95685.80
2017-11-08T16:38:38.558Z,95688.54
2017-11-08T16:41:07.098Z,95690.34
2017-11-08T16:43:34.620Z,95696.39
2017-11-08T16:46:02.193Z,95681.03
2017-11-08T16:48:29.738Z,95689.02
2017-11-08T16:50:57.289Z,95682.86
2017-11-08T16:53:24.907Z,95686.02
2017-11-08T16:55:52.477Z,95684.09
2017-11-08T16:58:20.036Z,95682.79
2017-11-08T17:00:47.654Z,95680.24
2017-11-08T17:03:15.283Z,95679.58
2017-11-08T17:05:42.926Z,95678.24
2017-11-08T17:08:10.528Z,95691.98
2017-11-08T17:10:38.075Z,95683.28
2017-11-08T17:13:05.616Z,95684.39
2017-11-08T17:15:33.823Z,95675.91
2017-11-08T17:18:01.707Z,95681.73
2017-11-08T17:20:29.281Z,95684.16
2017-11-08T17:22:56.863Z,95695.95
2017-11-08T17:25:24.443Z,95687.11
2017-11-08T17:27:54.959Z,95685.81
2017-11-08T17:30:22.575Z,95683.89
2017-11-08T17:32:50.208Z,95687.37
2017-11-08T17:35:17.825Z,95691.71
2017-11-08T17:37:48.469Z,95690.06
2017-11-08T17:40:16.144Z,95686.02
2017-11-08T17:42:43.816Z,95690.15
2017-11-08T17:45:11.456Z,95690.72
2017-11-08T17:50:12.044Z,95685.94
2017-11-08T17:52:39.652Z,95689.31
2017-11-08T17:55:07.205Z,95698.22
2017-11-08T17:57:34.859Z,95693.42
2017-11-08T18:00:02.410Z,95680.74
2017-11-08T18:02:30.391Z,95691.60
2017-11-08T18:04:58.011Z,95688.48
2017-11-08T18:07:25.700Z,95688.23
2017-11-08T18:09:53.327Z,95692.62
2017-11-08T18:12:21.829Z,95687.08
2017-11-08T18:14:49.570Z,95685.83
2017-11-08T18:17:17.166Z,95676.02
2017-11-08T18:19:45.687Z,95684.79
2017-11-08T18:22:13.548Z,95689.11
2017-11-08T18:24:41.147Z,95687.58
2017-11-08T18:27:08.971Z,95681.53
2017-11-08T18:29:36.498Z,95691.69
2017-11-08T18:32:04.076Z,95684.53
2017-11-08T18:34:31.599Z,95686.31
2017-11-08T18:36:59.202Z,95683.12
2017-11-08T18:39:26.801Z,95678.89
2017-11-08T18:41:54.396Z,95677.27
2017-11-08T18:44:21.981Z,95697.95
2017-11-08T18:46:50.320Z,95695.21
2017-11-08T18:49:17.839Z,95695.86
2017-11-08T18:51:45.666Z,95692.58
2017-11-08T18:54:13.354Z,95697.73
2017-11-08T18:56:40.888Z,95689.59
2017-11-08T18:59:08.423Z,95682.45
2017-11-08T19:01:36.029Z,95692.40
2017-11-08T19:04:03.644Z,95693.77
2017-11-08T19:06:31.223Z,95687.55
2017-11-08T19:09:05.639Z,95696.08
2017-11-08T19:11:33.251Z,95686.48
2017-11-08T19:14:01.264Z,95689.42
2017-11-08T19:16:33.664Z,95693.23
2017-11-08T19:19:01.899Z,95689.23
2017-11-08T19:21:30.808Z,95690.77
2017-11-08T19:24:07.396Z,95691.94
2017-11-08T19:26:35.004Z,95693.20
2017-11-08T19:29:02.621Z,95697.03
2017-11-08T19:31:31.867Z,95699.22
2017-11-08T19:34:02.085Z,95699.06
2017-11-08T19:36:31.999Z,95707.70
2017-11-08T19:39:00.862Z,95702.87
2017-11-08T19:41:41.669Z,95705.90
2017-11-08T19:44:13.046Z,95706.90
2017-11-08T19:46:44.364Z,95706.98
2017-11-08T19:49:13.039Z,95705.69
2017-11-08T19:51:52.050Z,95710.31
2017-11-08T19:54:27.201Z,95710.72
2017-11-08T19:57:11.608Z,95717.30
2017-11-08T19:59:42.760Z,95716.81
2017-11-08T20:02:13.895Z,95717.94
2017-11-08T20:04:46.107Z,95709.75
2017-11-08T20:07:14.255Z,95715.05
2017-11-08T20:09:41.953Z,95714.53
2017-11-08T20:12:09.712Z,95707.34
2017-11-08T20:14:40.030Z,95708.88
2017-11-08T20:19:48.784Z,95712.49
2017-11-08T20:22:23.170Z,95711.46
2017-11-08T20:24:51.600Z,95709.25
2017-11-08T20:27:19.983Z,95706.17
2017-11-08T20:29:49.861Z,95715.14
2017-11-08T20:32:19.695Z,95713.49
2017-11-08T20:34:50.410Z,95705.33
2017-11-08T20:37:20.036Z,95705.60
2017-11-08T20:39:47.916Z,95710.02
2017-11-08T20:42:15.465Z,95705.45
2017-11-08T20:44:44.619Z,95711.67
2017-11-08T20:47:16.323Z,95703.41
2017-11-08T20:49:44.627Z,95707.59
2017-11-08T20:52:12.906Z,95709.53
2017-11-08T20:54:41.479Z,95702.68
2017-11-08T20:57:09.092Z,95716.59
2017-11-08T20:59:37.085Z,95685.56
2017-11-08T21:02:13.892Z,95694.92
2017-11-08T21:04:42.404Z,95698.59
2017-11-08T21:07:13.533Z,95706.41
2017-11-08T21:22:59.173Z,95701.14
2017-11-08T21:25:29.867Z,95708.85
2017-11-08T21:28:05.748Z,95704.59
2017-11-08T21:30:40.890Z,95701.48
2017-11-08T22:58:01.654Z,95723.71
2017-11-08T23:06:13.638Z,95728.24
2017-11-08T23:12:12.243Z,95735.66
2017-11-08T23:14:41.980Z,95740.84
2017-11-08T23:17:12.917Z,95731.05
2017-11-08T23:19:41.971Z,95734.28
2017-11-08T23:22:10.523Z,95728.52
2017-11-08T23:24:40.812Z,95727.42
2017-11-08T23:27:13.940Z,95725.67
2017-11-08T23:36:43.538Z,95730.93
2017-11-08T23:39:11.282Z,95733.91
2017-11-08T23:41:57.374Z,95732.17
2017-11-08T23:55:05.740Z,95743.52
2017-11-08T23:57:34.495Z,95742.06
